Wetterdaten: aktuell Dienstag, 23.05.2017 01:15
Datum Zeit Temp. A. Feuchte A. Luftdruck Regen Wind Richtung Richtung Windben
23.05.2017 01:15 12,5 C 94 % 1017,7 hPa 0,0 l/m 0,0 km/h N-NO 21 0,0 km/h
23.05.2017 01:10 12,5 C 94 % 1017,8 hPa 0,0 l/m 0,0 km/h N 360 1,6 km/h
23.05.2017 01:05 12,5 C 94 % 1017,9 hPa 0,0 l/m 0,0 km/h N 359 0,0 km/h
23.05.2017 01:00 12,5 C 94 % 1018,1 hPa 0,0 l/m 0,1 km/h N 2 3,2 km/h
23.05.2017 00:55 12,5 C 94 % 1018,2 hPa 0,0 l/m 0,0 km/h N-NW 344 0,0 km/h
23.05.2017 00:51 12,5 C 95 % 1018,3 hPa 0,2 l/m 0,0 km/h N 356 0,0 km/h
23.05.2017 00:45 12,6 C 95 % 1018,4 hPa 0,0 l/m 0,0 km/h N 353 1,6 km/h
23.05.2017 00:40 12,6 C 95 % 1018,5 hPa 0,2 l/m 0,0 km/h N 356 0,0 km/h
23.05.2017 00:35 12,6 C 95 % 1018,6 hPa 0,4 l/m 0,0 km/h N 350 1,6 km/h
23.05.2017 00:30 12,6 C 94 % 1018,7 hPa 0,6 l/m 0,0 km/h N-NW 331 0,0 km/h
23.05.2017 00:25 12,7 C 94 % 1018,8 hPa 0,4 l/m 0,0 km/h N 358 0,0 km/h
23.05.2017 00:20 12,7 C 94 % 1018,9 hPa 0,4 l/m 0,0 km/h N-NW 343 0,0 km/h
23.05.2017 00:15 12,7 C 94 % 1019,0 hPa 0,6 l/m 0,0 km/h N-NO 17 0,0 km/h
23.05.2017 00:10 12,7 C 95 % 1019,0 hPa 0,8 l/m 0,0 km/h O-NO 66 0,0 km/h
23.05.2017 00:05 12,8 C 95 % 1019,1 hPa 0,0 l/m 0,0 km/h NO 45 1,6 km/h
23.05.2017 00:00 12,8 C 95 % 1019,2 hPa 0,4 l/m 0,0 km/h O 83 0,0 km/h
22.05.2017 23:55 12,8 C 95 % 1019,0 hPa 0,4 l/m 0,0 km/h N-NW 329 0,0 km/h
22.05.2017 23:50 12,8 C 95 % 1018,9 hPa 0,8 l/m 0,0 km/h N-NO 17 0,0 km/h
22.05.2017 23:45 12,8 C 95 % 1019,0 hPa 0,8 l/m 0,0 km/h N 7 0,0 km/h
22.05.2017 23:40 12,8 C 95 % 1018,9 hPa 0,4 l/m 0,0 km/h N-NW 329 0,0 km/h
22.05.2017 23:36 12,8 C 95 % 1018,9 hPa 0,4 l/m 0,0 km/h N 352 0,0 km/h
22.05.2017 23:30 12,9 C 95 % 1019,0 hPa 0,8 l/m 0,0 km/h N-NW 330 0,0 km/h
22.05.2017 23:25 12,9 C 95 % 1019,0 hPa 0,6 l/m 0,0 km/h N-NO 22 0,0 km/h
22.05.2017 23:20 12,8 C 95 % 1019,0 hPa 0,6 l/m 0,0 km/h NO 34 0,0 km/h
22.05.2017 23:15 12,8 C 95 % 1019,0 hPa 0,2 l/m 0,0 km/h N 355 0,0 km/h
22.05.2017 23:10 12,8 C 95 % 1019,0 hPa 0,2 l/m 0,0 km/h N-NO 29 0,0 km/h
22.05.2017 23:06 12,8 C 94 % 1019,1 hPa 0,0 l/m 0,0 km/h N-NW 347 0,0 km/h
22.05.2017 23:00 12,8 C 94 % 1019,0 hPa 0,2 l/m 0,0 km/h N 358 0,0 km/h
22.05.2017 22:55 12,9 C 94 % 1019,0 hPa 0,4 l/m 0,0 km/h N 358 0,0 km/h
22.05.2017 22:50 12,9 C 94 % 1018,9 hPa 0,2 l/m 0,0 km/h N 356 0,0 km/h
22.05.2017 22:45 12,9 C 94 % 1019,0 hPa 0,6 l/m 0,0 km/h N-NO 22 0,0 km/h
22.05.2017 22:40 13,0 C 94 % 1018,8 hPa 0,6 l/m 0,0 km/h N-NO 27 0,0 km/h
22.05.2017 22:36 13,1 C 94 % 1019,0 hPa 1,0 l/m 0,0 km/h N-NO 17 0,0 km/h
22.05.2017 22:30 13,1 C 93 % 1019,0 hPa 0,6 l/m 0,0 km/h NO 46 0,0 km/h
22.05.2017 22:25 13,1 C 93 % 1018,8 hPa 0,4 l/m 0,0 km/h NO 46 0,0 km/h
22.05.2017 22:20 13,0 C 93 % 1018,8 hPa 0,8 l/m 0,0 km/h NO 43 0,0 km/h
22.05.2017 22:15 13,1 C 93 % 1018,8 hPa 0,8 l/m 0,0 km/h NW 310 0,0 km/h
22.05.2017 22:10 13,2 C 93 % 1018,7 hPa 0,4 l/m 0,0 km/h N-NW 328 0,0 km/h
22.05.2017 22:05 13,3 C 92 % 1018,7 hPa 0,6 l/m 0,0 km/h N 7 0,0 km/h
22.05.2017 22:00 13,4 C 92 % 1018,8 hPa 0,8 l/m 0,0 km/h N-NO 17 0,0 km/h
22.05.2017 21:55 13,4 C 92 % 1018,9 hPa 0,6 l/m 0,0 km/h N-NW 341 0,0 km/h
22.05.2017 21:50 13,4 C 91 % 1018,9 hPa 0,4 l/m 0,0 km/h N-NW 340 0,0 km/h
22.05.2017 21:45 13,4 C 91 % 1018,8 hPa 0,4 l/m 0,0 km/h N-NW 340 0,0 km/h
22.05.2017 21:40 13,6 C 90 % 1018,6 hPa 0,4 l/m 0,0 km/h N-NW 335 0,0 km/h
22.05.2017 21:35 13,7 C 89 % 1018,5 hPa 0,2 l/m 0,0 km/h N-NW 338 0,0 km/h
22.05.2017 21:30 13,8 C 88 % 1018,3 hPa 0,2 l/m 0,0 km/h N-NW 339 0,0 km/h
22.05.2017 21:25 13,9 C 87 % 1018,1 hPa 0,2 l/m 0,0 km/h NW 306 0,0 km/h
22.05.2017 21:20 13,9 C 87 % 1017,9 hPa 0,4 l/m 0,0 km/h O 85 3,2 km/h
22.05.2017 21:15 14,1 C 87 % 1017,7 hPa 0,0 l/m 0,0 km/h NO 55 0,0 km/h
22.05.2017 21:10 14,1 C 86 % 1017,7 hPa 0,2 l/m 0,0 km/h N-NO 28 0,0 km/h
22.05.2017 21:06 14,2 C 85 % 1017,7 hPa 0,0 l/m 0,0 km/h N-NW 346 0,0 km/h
22.05.2017 21:00 14,4 C 83 % 1017,6 hPa 0,0 l/m 0,0 km/h N 2 0,0 km/h
22.05.2017 20:55 14,6 C 81 % 1017,6 hPa 0,0 l/m 0,4 km/h N 358 6,4 km/h
22.05.2017 20:50 14,7 C 81 % 1017,5 hPa 0,0 l/m 6,4 km/h N-NW 341 22,5 km/h
22.05.2017 20:45 14,6 C 80 % 1017,5 hPa 0,0 l/m 3,3 km/h N-NW 348 17,7 km/h
22.05.2017 20:40 14,8 C 80 % 1017,5 hPa 0,2 l/m 1,5 km/h NW 320 14,5 km/h
22.05.2017 20:35 15,1 C 79 % 1017,4 hPa 0,0 l/m 10,4 km/h N 352 29,0 km/h
22.05.2017 20:30 15,3 C 78 % 1017,2 hPa 0,2 l/m 13,8 km/h N-NW 329 32,2 km/h
22.05.2017 20:25 15,8 C 75 % 1017,2 hPa 0,0 l/m 17,9 km/h N-NW 347 33,8 km/h
22.05.2017 20:20 16,3 C 73 % 1017,2 hPa 0,2 l/m 20,1 km/h N 357 33,8 km/h
22.05.2017 20:15 16,9 C 68 % 1017,0 hPa 0,0 l/m 23,9 km/h N 350 35,4 km/h
22.05.2017 20:10 17,5 C 64 % 1017,0 hPa 0,0 l/m 24,4 km/h N-NW 344 38,6 km/h
22.05.2017 20:05 17,9 C 61 % 1016,7 hPa 0,0 l/m 25,1 km/h N 7 43,5 km/h
22.05.2017 20:00 18,2 C 59 % 1016,7 hPa 0,0 l/m 20,0 km/h N 1 33,8 km/h
22.05.2017 19:55 18,3 C 59 % 1016,6 hPa 0,0 l/m 23,1 km/h N 2 41,8 km/h
22.05.2017 19:50 18,2 C 59 % 1016,6 hPa 0,0 l/m 18,4 km/h N-NW 344 37,0 km/h
22.05.2017 19:45 18,2 C 61 % 1016,6 hPa 0,0 l/m 9,5 km/h N 350 24,1 km/h
22.05.2017 19:40 18,3 C 62 % 1016,6 hPa 0,0 l/m 7,3 km/h N-NO 12 17,7 km/h
22.05.2017 19:36 18,5 C 60 % 1016,6 hPa 0,0 l/m 14,1 km/h N 7 24,1 km/h
22.05.2017 19:30 18,8 C 58 % 1016,6 hPa 0,0 l/m 15,3 km/h N-NW 345 30,6 km/h
22.05.2017 19:25 19,2 C 57 % 1016,5 hPa 0,0 l/m 16,9 km/h N 359 30,6 km/h
22.05.2017 19:20 19,5 C 56 % 1016,4 hPa 0,0 l/m 17,3 km/h N 7 29,0 km/h
22.05.2017 19:15 19,8 C 55 % 1016,5 hPa 0,0 l/m 19,9 km/h N-NO 17 29,0 km/h
22.05.2017 19:10 20,2 C 54 % 1016,5 hPa 0,0 l/m 14,3 km/h N-NO 17 25,7 km/h
22.05.2017 19:05 20,2 C 56 % 1016,5 hPa 0,0 l/m 4,7 km/h N-NO 29 22,5 km/h
22.05.2017 19:00 20,2 C 59 % 1016,3 hPa 0,0 l/m 1,2 km/h N 354 14,5 km/h
22.05.2017 18:55 20,1 C 60 % 1016,2 hPa 0,0 l/m 0,2 km/h N 352 3,2 km/h
22.05.2017 18:50 20,1 C 68 % 1016,3 hPa 0,0 l/m 0,0 km/h N-NO 17 0,0 km/h
22.05.2017 18:45 20,3 C 66 % 1016,2 hPa 0,0 l/m 0,0 km/h N 7 0,0 km/h
22.05.2017 18:40 20,4 C 66 % 1016,2 hPa 0,0 l/m 0,0 km/h N-NO 12 0,0 km/h
22.05.2017 18:35 20,6 C 66 % 1016,1 hPa 0,0 l/m 0,0 km/h N-NO 12 0,0 km/h
22.05.2017 18:30 20,7 C 66 % 1016,2 hPa 0,0 l/m 0,0 km/h N-NO 12 0,0 km/h
22.05.2017 18:25 20,8 C 64 % 1016,2 hPa 0,0 l/m 0,0 km/h N-NO 12 0,0 km/h
22.05.2017 18:20 21,0 C 65 % 1016,1 hPa 0,0 l/m 0,0 km/h N-NO 12 0,0 km/h
22.05.2017 18:15 21,2 C 63 % 1016,2 hPa 0,0 l/m 0,0 km/h O-NO 61 0,0 km/h
22.05.2017 18:10 21,1 C 60 % 1016,2 hPa 0,0 l/m 0,0 km/h O-NO 63 0,0 km/h
22.05.2017 18:05 21,2 C 65 % 1016,1 hPa 0,0 l/m 0,0 km/h O-SO 110 0,0 km/h
22.05.2017 18:00 21,2 C 65 % 1016,1 hPa 0,0 l/m 0,0 km/h SO 131 0,0 km/h
22.05.2017 17:55 21,2 C 63 % 1016,1 hPa 0,0 l/m 0,0 km/h SO 131 0,0 km/h
22.05.2017 17:50 21,3 C 57 % 1016,2 hPa 0,0 l/m 0,0 km/h SO 131 0,0 km/h
22.05.2017 17:45 21,4 C 55 % 1016,2 hPa 0,0 l/m 0,0 km/h SO 131 0,0 km/h
22.05.2017 17:40 21,4 C 57 % 1016,1 hPa 0,0 l/m 0,0 km/h SO 142 0,0 km/h
22.05.2017 17:36 21,5 C 56 % 1016,1 hPa 0,0 l/m 0,0 km/h SO 142 0,0 km/h
22.05.2017 17:30 21,7 C 56 % 1016,2 hPa 0,0 l/m 0,0 km/h SO 142 0,0 km/h
22.05.2017 17:25 21,8 C 54 % 1016,3 hPa 0,0 l/m 0,0 km/h SO 129 0,0 km/h
22.05.2017 17:20 21,9 C 55 % 1016,3 hPa 0,0 l/m 0,0 km/h SO 130 0,0 km/h
22.05.2017 17:15 22,1 C 53 % 1016,4 hPa 0,0 l/m 0,0 km/h S 173 0,0 km/h
_ Min-Zeit 06:35 15:10 17:36 - 02:25 - - 02:25
Minimum _ 9,3 C 48 % 1016,1 hPa - 0,0 km/h - - 0,0 km/h
_ Max-Zeit 14:35 23:10 02:00 22:36 20:05 - - 20:05
Maximum _ 24,1 C 95 % 1020,9 hPa 1,0 l/m 25,1 km/h
N
- - 43,5 km/h
N-NW
Durchschnitt _ 16,6 C 70 % 1018,8 hPa #20,2 l/m 1,2 km/h N-NO - 3,7 km/h